createdAt,value
2022-12-19T00:01:36.589Z,28.55
2022-12-19T00:04:07.792Z,29.33
2022-12-19T00:06:35.930Z,28.00
2022-12-19T00:09:02.335Z,29.63
2022-12-19T00:11:29.885Z,30.40
2022-12-19T00:13:56.726Z,29.50
2022-12-19T00:16:28.368Z,31.52
2022-12-19T00:18:56.820Z,30.45
2022-12-19T00:21:25.673Z,30.10
2022-12-19T00:23:52.350Z,31.45
2022-12-19T00:26:26.625Z,31.30
2022-12-19T00:28:55.567Z,31.85
2022-12-19T00:31:26.007Z,31.08
2022-12-19T00:33:52.658Z,30.40
2022-12-19T00:36:22.755Z,29.85
2022-12-19T00:38:51.156Z,30.55
2022-12-19T00:41:23.016Z,31.08
2022-12-19T00:43:57.842Z,30.83
2022-12-19T00:46:25.064Z,31.45
2022-12-19T00:48:51.592Z,29.63
2022-12-19T00:51:21.237Z,30.00
2022-12-19T00:53:49.557Z,30.95
2022-12-19T00:56:18.627Z,29.77
2022-12-19T00:58:47.377Z,29.80
2022-12-19T01:01:23.502Z,29.73
2022-12-19T01:04:26.766Z,30.20
2022-12-19T01:06:37.949Z,30.95
2022-12-19T01:09:09.516Z,30.35
2022-12-19T01:11:54.795Z,30.75
2022-12-19T01:14:23.211Z,28.90
2022-12-19T01:16:51.057Z,29.63
2022-12-19T01:19:19.183Z,28.93
2022-12-19T01:21:45.657Z,31.05
2022-12-19T01:24:12.346Z,31.10
2022-12-19T01:26:40.241Z,32.38
2022-12-19T01:29:06.713Z,32.55
2022-12-19T01:31:33.782Z,31.27
2022-12-19T01:36:29.578Z,29.85
2022-12-19T01:38:57.499Z,28.83
2022-12-19T01:41:24.154Z,29.05
2022-12-19T01:44:01.162Z,30.25
2022-12-19T01:46:35.483Z,29.65
2022-12-19T01:49:03.124Z,29.60
2022-12-19T01:54:05.269Z,29.13
2022-12-19T01:56:38.222Z,28.58
2022-12-19T01:59:08.218Z,28.77
2022-12-19T02:01:40.899Z,29.17
2022-12-19T02:04:20.342Z,30.33
2022-12-19T02:06:47.234Z,28.30
2022-12-19T02:09:14.223Z,30.05
2022-12-19T02:11:40.793Z,30.58
2022-12-19T02:14:07.380Z,31.13
2022-12-19T02:16:54.569Z,30.77
2022-12-19T02:19:52.127Z,30.58
2022-12-19T02:22:40.971Z,31.30
2022-12-19T02:25:28.213Z,28.80
2022-12-19T02:28:26.043Z,30.30
2022-12-19T02:31:16.797Z,30.88
2022-12-19T02:33:54.423Z,30.65
2022-12-19T02:36:40.877Z,30.35
2022-12-19T02:39:30.642Z,30.42
2022-12-19T02:42:02.038Z,30.98
2022-12-19T02:44:42.293Z,30.95
2022-12-19T02:47:09.568Z,32.08
2022-12-19T02:49:39.115Z,32.90
2022-12-19T02:52:11.335Z,32.92
2022-12-19T02:54:38.871Z,32.25
2022-12-19T02:57:19.791Z,33.67
2022-12-19T03:00:09.420Z,33.22
2022-12-19T03:02:42.772Z,33.10
2022-12-19T03:05:31.181Z,35.20
2022-12-19T03:08:07.832Z,34.67
2022-12-19T03:10:52.722Z,33.63
2022-12-19T03:13:25.463Z,33.55
2022-12-19T03:15:52.667Z,35.28
2022-12-19T03:18:20.770Z,33.85
2022-12-19T03:21:36.152Z,35.03
2022-12-19T03:24:04.090Z,35.40
2022-12-19T03:26:36.351Z,34.60
2022-12-19T03:29:11.254Z,34.95
2022-12-19T03:31:39.030Z,33.88
2022-12-19T03:34:10.560Z,32.75
2022-12-19T03:36:44.275Z,36.58
2022-12-19T03:39:12.833Z,36.40
2022-12-19T03:41:57.893Z,34.55
2022-12-19T03:44:26.607Z,35.15
2022-12-19T03:46:58.920Z,37.17
2022-12-19T03:49:26.001Z,35.53
2022-12-19T03:52:03.266Z,36.55
2022-12-19T03:54:34.848Z,36.80
2022-12-19T03:57:07.717Z,36.10
2022-12-19T03:59:48.172Z,38.47
2022-12-19T04:02:20.412Z,37.33
2022-12-19T04:04:51.860Z,37.13
2022-12-19T04:07:18.445Z,36.92
2022-12-19T04:09:45.914Z,37.05
2022-12-19T04:12:21.190Z,37.40
2022-12-19T04:14:48.818Z,36.33
2022-12-19T04:17:49.298Z,35.72
2022-12-19T04:20:18.032Z,35.10
2022-12-19T04:23:32.265Z,34.80
2022-12-19T04:26:03.459Z,36.90
2022-12-19T04:28:36.505Z,36.97
2022-12-19T04:31:03.807Z,35.60
2022-12-19T04:33:30.321Z,37.28
2022-12-19T04:35:56.897Z,36.03
2022-12-19T04:38:23.374Z,34.70
2022-12-19T04:40:49.827Z,35.00
2022-12-19T04:43:16.298Z,36.50
2022-12-19T04:45:42.794Z,36.00
2022-12-19T04:48:09.764Z,37.20
2022-12-19T04:50:36.611Z,37.25
2022-12-19T04:53:03.376Z,36.38
2022-12-19T04:55:29.816Z,36.90
2022-12-19T04:57:56.308Z,38.00
2022-12-19T05:00:23.091Z,34.28
2022-12-19T05:02:49.701Z,36.03
2022-12-19T05:05:18.070Z,37.72
2022-12-19T05:07:44.580Z,36.45
2022-12-19T05:10:11.070Z,35.10
2022-12-19T05:12:37.530Z,37.53
2022-12-19T05:15:04.821Z,36.03
2022-12-19T05:17:31.314Z,37.55
2022-12-19T05:19:57.771Z,37.38
2022-12-19T05:22:27.301Z,34.97
2022-12-19T05:24:53.724Z,37.47
2022-12-19T05:27:21.281Z,36.67
2022-12-19T05:29:47.704Z,36.95
2022-12-19T05:32:14.142Z,38.55
2022-12-19T05:34:40.570Z,36.00
2022-12-19T05:37:07.270Z,37.05
2022-12-19T05:39:34.927Z,35.58
2022-12-19T05:42:01.446Z,37.17
2022-12-19T05:44:27.887Z,37.13
2022-12-19T05:46:54.576Z,37.40
2022-12-19T05:49:21.202Z,38.92
2022-12-19T05:51:48.320Z,39.25
2022-12-19T05:54:15.091Z,38.60
2022-12-19T05:56:41.679Z,38.60
2022-12-19T05:59:08.317Z,40.20
2022-12-19T06:01:35.089Z,37.97
2022-12-19T06:04:01.580Z,51.65
2022-12-19T06:06:28.185Z,59.03
2022-12-19T06:08:56.462Z,52.97
2022-12-19T06:11:23.519Z,47.58
2022-12-19T06:13:50.130Z,36.88
2022-12-19T06:16:18.587Z,37.35
2022-12-19T06:18:46.206Z,37.90
2022-12-19T06:21:20.736Z,34.53
2022-12-19T06:23:47.328Z,34.65
2022-12-19T06:26:19.656Z,37.70
2022-12-19T06:28:47.747Z,35.67
2022-12-19T06:31:14.530Z,34.78
2022-12-19T06:33:41.153Z,34.53
2022-12-19T06:36:10.849Z,34.05
2022-12-19T06:38:37.340Z,34.10
2022-12-19T06:41:22.390Z,32.35
2022-12-19T06:43:53.330Z,33.30
2022-12-19T06:46:20.442Z,32.63
2022-12-19T06:48:47.021Z,32.45
2022-12-19T06:51:13.482Z,36.13
2022-12-19T06:53:40.297Z,35.38
2022-12-19T06:56:07.050Z,35.30
2022-12-19T06:58:33.913Z,33.08
2022-12-19T07:01:01.306Z,29.00
2022-12-19T07:03:32.518Z,32.03
2022-12-19T07:05:59.088Z,31.25
2022-12-19T07:08:29.539Z,30.73
2022-12-19T07:10:56.629Z,33.03
2022-12-19T07:13:23.101Z,31.58
2022-12-19T07:15:51.043Z,31.10
2022-12-19T07:18:17.579Z,30.15
2022-12-19T07:20:45.404Z,28.15
2022-12-19T07:23:14.814Z,27.35
2022-12-19T07:28:08.339Z,25.60
2022-12-19T07:30:35.150Z,25.65
2022-12-19T07:33:01.666Z,30.10
2022-12-19T07:35:28.249Z,28.73
2022-12-19T07:37:54.733Z,27.30
2022-12-19T07:40:21.309Z,26.55
2022-12-19T07:42:47.706Z,25.77
2022-12-19T07:45:14.495Z,25.80
2022-12-19T07:47:40.939Z,25.55
2022-12-19T07:50:08.549Z,24.00
2022-12-19T07:52:34.966Z,25.30
2022-12-19T07:55:01.354Z,24.95
2022-12-19T07:57:27.776Z,24.05
2022-12-19T07:59:54.444Z,26.20
2022-12-19T08:02:21.184Z,25.77
2022-12-19T08:04:47.716Z,23.90
2022-12-19T08:07:14.140Z,26.13
2022-12-19T08:09:40.536Z,24.60
2022-12-19T08:12:07.359Z,23.48
2022-12-19T08:14:33.762Z,25.52
2022-12-19T08:19:46.529Z,24.10
2022-12-19T08:22:12.943Z,31.95
2022-12-19T08:24:39.491Z,30.45
2022-12-19T08:27:05.953Z,29.50
2022-12-19T08:29:32.802Z,31.63
2022-12-19T08:31:59.323Z,34.13
2022-12-19T08:34:25.713Z,33.20
2022-12-19T08:36:52.309Z,34.78
2022-12-19T08:39:18.793Z,34.55
2022-12-19T08:41:45.216Z,33.22
2022-12-19T08:44:12.829Z,32.03
2022-12-19T08:46:40.334Z,32.92
2022-12-19T08:49:09.312Z,36.17
2022-12-19T08:51:35.765Z,33.28
2022-12-19T08:54:02.200Z,28.05
2022-12-19T08:56:34.208Z,35.83
2022-12-19T08:59:00.609Z,35.25
2022-12-19T09:01:27.191Z,37.58
2022-12-19T09:04:09.582Z,38.55
2022-12-19T09:06:40.790Z,37.95
2022-12-19T09:09:07.320Z,35.92
2022-12-19T09:11:36.185Z,35.95
2022-12-19T09:14:13.943Z,33.60
2022-12-19T09:16:42.238Z,34.03
2022-12-19T09:19:15.190Z,33.15
2022-12-19T09:21:42.251Z,36.22
2022-12-19T09:24:09.056Z,35.20
2022-12-19T09:26:35.891Z,34.50
2022-12-19T09:29:03.559Z,34.17
2022-12-19T09:31:33.406Z,34.63
2022-12-19T09:33:59.865Z,35.22
2022-12-19T09:36:26.610Z,36.35
2022-12-19T09:38:54.882Z,37.17
2022-12-19T09:41:34.152Z,35.20
2022-12-19T09:46:51.413Z,32.03
2022-12-19T09:49:21.791Z,32.63
2022-12-19T09:51:54.087Z,32.58
2022-12-19T09:54:27.871Z,33.63
2022-12-19T09:57:00.143Z,33.42
2022-12-19T09:59:41.495Z,32.80
2022-12-19T10:02:27.254Z,47.05
2022-12-19T10:05:53.771Z,36.15
2022-12-19T10:08:09.387Z,37.20
2022-12-19T10:12:37.819Z,34.78
2022-12-19T10:14:02.536Z,33.83
2022-12-19T10:17:22.112Z,34.53
2022-12-19T10:20:12.121Z,35.83
2022-12-19T10:22:54.382Z,35.40
2022-12-19T10:26:02.403Z,35.75
2022-12-19T10:28:43.657Z,35.47
2022-12-19T10:31:29.158Z,34.60
2022-12-19T10:33:58.634Z,32.80
2022-12-19T10:39:26.029Z,35.60
2022-12-19T10:41:55.608Z,35.40
2022-12-19T10:44:22.359Z,40.60
2022-12-19T10:46:49.814Z,39.38
2022-12-19T10:49:18.093Z,33.58
2022-12-19T10:52:10.457Z,35.03
2022-12-19T10:54:40.025Z,35.13
2022-12-19T10:57:22.360Z,32.83
2022-12-19T11:00:01.528Z,32.13
2022-12-19T11:02:47.636Z,31.58
2022-12-19T11:05:29.923Z,33.95
2022-12-19T11:08:08.636Z,40.22
2022-12-19T11:11:12.918Z,36.33
2022-12-19T11:18:55.766Z,34.95
2022-12-19T11:21:03.826Z,32.85
2022-12-19T11:29:18.340Z,34.15
2022-12-19T11:29:44.095Z,33.33
2022-12-19T11:30:41.543Z,32.60
2022-12-19T11:30:46.259Z,30.80
2022-12-19T11:34:18.959Z,32.13
2022-12-19T11:36:50.612Z,31.65
2022-12-19T11:39:41.834Z,30.75
2022-12-19T11:42:24.751Z,31.95
2022-12-19T11:44:58.661Z,30.98
2022-12-19T11:47:32.371Z,31.00
2022-12-19T11:50:03.239Z,30.02
2022-12-19T11:53:14.569Z,29.20
2022-12-19T11:55:51.433Z,28.60
2022-12-19T11:58:17.914Z,27.73
2022-12-19T12:00:55.893Z,29.90
2022-12-19T12:04:02.220Z,29.58
2022-12-19T12:06:34.544Z,29.52
2022-12-19T12:12:49.142Z,31.30
2022-12-19T12:17:14.057Z,29.02
2022-12-19T12:27:02.188Z,30.88
2022-12-19T12:31:11.599Z,32.28
2022-12-19T12:31:17.024Z,29.73
2022-12-19T12:31:46.930Z,28.30
2022-12-19T12:31:53.071Z,28.77
2022-12-19T12:35:40.780Z,28.73
2022-12-19T12:39:40.169Z,31.03
2022-12-19T12:42:24.662Z,35.80
2022-12-19T12:44:53.116Z,44.92
2022-12-19T12:47:25.473Z,36.87
2022-12-19T12:49:56.921Z,37.35
2022-12-19T12:52:33.971Z,39.75
2022-12-19T12:55:01.593Z,40.17
2022-12-19T12:57:28.987Z,44.42
2022-12-19T13:00:24.502Z,44.13
2022-12-19T13:02:55.299Z,41.15
2022-12-19T13:05:43.700Z,41.30
2022-12-19T13:08:44.052Z,42.00
2022-12-19T13:11:38.433Z,41.50
2022-12-19T13:14:06.692Z,37.33
2022-12-19T13:16:45.412Z,39.92
2022-12-19T13:19:28.506Z,38.88
2022-12-19T13:22:04.584Z,39.17
2022-12-19T13:24:41.527Z,40.88
2022-12-19T13:27:20.063Z,36.42
2022-12-19T13:30:03.749Z,35.63
2022-12-19T13:32:53.234Z,39.30
2022-12-19T13:36:33.338Z,48.97
2022-12-19T13:40:00.762Z,41.50
2022-12-19T13:41:28.274Z,44.83
2022-12-19T13:46:44.591Z,38.83
2022-12-19T13:49:21.905Z,38.13
2022-12-19T13:51:51.580Z,36.45
2022-12-19T13:54:20.591Z,34.72
2022-12-19T13:56:47.265Z,38.17
2022-12-19T13:59:13.723Z,34.15
2022-12-19T14:01:40.800Z,38.88
2022-12-19T14:04:10.811Z,38.17
2022-12-19T14:06:43.593Z,36.47
2022-12-19T14:11:25.866Z,37.72
2022-12-19T14:14:01.378Z,38.85
2022-12-19T14:15:28.718Z,39.40
2022-12-19T14:17:55.263Z,36.03
2022-12-19T14:22:07.748Z,35.25
2022-12-19T14:23:11.153Z,32.47
2022-12-19T14:28:22.203Z,34.22
2022-12-19T14:28:40.783Z,33.38
2022-12-19T14:31:15.054Z,34.50
2022-12-19T14:33:59.011Z,33.22
2022-12-19T14:36:32.697Z,33.45
2022-12-19T14:39:26.901Z,35.38
2022-12-19T14:42:07.553Z,33.63
2022-12-19T14:52:51.807Z,33.83
2022-12-19T14:54:04.472Z,34.13
2022-12-19T14:54:14.802Z,36.10
2022-12-19T14:54:34.886Z,40.65
2022-12-19T14:56:57.735Z,35.80
2022-12-19T14:59:05.669Z,36.35
2022-12-19T15:01:34.058Z,38.97
2022-12-19T15:04:50.817Z,35.58
2022-12-19T15:07:07.332Z,35.58
2022-12-19T15:11:03.011Z,36.25
2022-12-19T15:14:52.226Z,34.80
2022-12-19T15:16:24.472Z,36.08
2022-12-19T15:18:53.597Z,36.25
2022-12-19T15:21:20.321Z,35.92
2022-12-19T15:23:46.850Z,34.70
2022-12-19T15:26:17.127Z,36.88
2022-12-19T15:28:51.585Z,36.25
2022-12-19T15:31:34.372Z,36.03
2022-12-19T15:34:48.211Z,37.55
2022-12-19T15:37:15.923Z,33.28
2022-12-19T15:39:42.939Z,34.63
2022-12-19T15:42:21.612Z,32.33
2022-12-19T15:44:48.665Z,33.33
2022-12-19T15:47:22.105Z,32.67
2022-12-19T15:49:48.557Z,32.78
2022-12-19T15:52:16.971Z,33.33
2022-12-19T15:54:48.896Z,35.03
2022-12-19T15:57:29.311Z,38.17
2022-12-19T15:59:57.740Z,38.28
2022-12-19T16:02:27.904Z,39.47
2022-12-19T16:05:04.794Z,34.10
2022-12-19T16:07:31.570Z,35.72
2022-12-19T16:09:57.942Z,33.78
2022-12-19T16:12:31.973Z,47.85
2022-12-19T16:14:59.737Z,40.97
2022-12-19T16:17:27.197Z,36.30
2022-12-19T16:19:53.689Z,37.83
2022-12-19T16:22:27.946Z,38.42
2022-12-19T16:24:54.714Z,36.38
2022-12-19T16:27:29.850Z,33.85
2022-12-19T16:29:58.857Z,33.80
2022-12-19T16:32:25.347Z,32.25
2022-12-19T16:34:52.799Z,29.40
2022-12-19T16:37:19.566Z,32.08
2022-12-19T16:39:46.128Z,32.83
2022-12-19T16:42:16.320Z,34.30
2022-12-19T16:44:44.439Z,31.15
2022-12-19T16:47:13.723Z,30.27
2022-12-19T16:49:40.323Z,30.35
2022-12-19T16:52:06.749Z,32.03
2022-12-19T16:54:33.183Z,30.20
2022-12-19T16:56:59.668Z,32.90
2022-12-19T16:59:31.210Z,33.00
2022-12-19T17:01:58.213Z,35.55
2022-12-19T17:04:25.393Z,36.95
2022-12-19T17:06:52.903Z,37.08
2022-12-19T17:09:23.992Z,58.53
2022-12-19T17:11:53.461Z,62.38
2022-12-19T17:14:22.694Z,41.80
2022-12-19T17:16:53.781Z,42.45
2022-12-19T17:19:23.520Z,39.42
2022-12-19T17:21:50.788Z,36.60
2022-12-19T17:24:17.751Z,35.22
2022-12-19T17:26:44.811Z,41.72
2022-12-19T17:29:11.467Z,36.80
2022-12-19T17:31:39.700Z,35.78
2022-12-19T17:34:28.524Z,36.33
2022-12-19T17:36:55.154Z,34.10
2022-12-19T17:39:26.692Z,32.97
2022-12-19T17:41:54.433Z,34.55
2022-12-19T17:44:20.900Z,34.85
2022-12-19T17:46:47.602Z,33.00
2022-12-19T17:49:21.010Z,32.03
2022-12-19T17:51:50.133Z,30.42
2022-12-19T17:54:16.617Z,32.80
2022-12-19T17:56:43.239Z,35.17
2022-12-19T17:59:09.681Z,35.70
2022-12-19T18:01:37.526Z,33.88
2022-12-19T18:04:04.131Z,35.35
2022-12-19T18:06:30.565Z,35.80
2022-12-19T18:08:57.067Z,34.30
2022-12-19T18:11:25.450Z,34.58
2022-12-19T18:13:52.583Z,33.37
2022-12-19T18:16:23.013Z,37.10
2022-12-19T18:18:49.673Z,34.53
2022-12-19T18:21:18.859Z,31.73
2022-12-19T18:23:45.557Z,32.45
2022-12-19T18:26:12.518Z,33.28
2022-12-19T18:28:42.295Z,32.75
2022-12-19T18:31:16.205Z,32.10
2022-12-19T18:33:45.259Z,32.47
2022-12-19T18:36:17.748Z,31.88
2022-12-19T18:38:44.390Z,32.13
2022-12-19T18:41:11.664Z,34.47
2022-12-19T18:43:38.071Z,31.33
2022-12-19T18:46:05.713Z,31.67
2022-12-19T18:48:34.417Z,32.00
2022-12-19T18:51:01.476Z,31.48
2022-12-19T18:53:35.084Z,31.30
2022-12-19T18:56:03.889Z,33.65
2022-12-19T18:58:30.449Z,34.15
2022-12-19T19:00:59.605Z,32.45
2022-12-19T19:03:29.389Z,32.35
2022-12-19T19:05:56.224Z,33.75
2022-12-19T19:08:24.886Z,32.60
2022-12-19T19:11:02.082Z,30.70
2022-12-19T19:13:29.442Z,31.50
2022-12-19T19:15:58.539Z,30.25
2022-12-19T19:18:29.665Z,31.13
2022-12-19T19:21:01.041Z,34.35
2022-12-19T19:23:33.700Z,32.97
2022-12-19T19:26:00.168Z,33.95
2022-12-19T19:28:26.562Z,33.80
2022-12-19T19:30:53.550Z,35.50
2022-12-19T19:33:24.030Z,34.08
2022-12-19T19:35:54.116Z,33.10
2022-12-19T19:38:21.578Z,32.05
2022-12-19T19:40:48.020Z,31.67
2022-12-19T19:43:14.569Z,34.15
2022-12-19T19:45:43.443Z,34.10
2022-12-19T19:48:10.043Z,34.17
2022-12-19T19:50:36.847Z,34.35
2022-12-19T19:53:03.740Z,32.78
2022-12-19T19:55:30.136Z,33.80
2022-12-19T19:57:56.591Z,34.67
2022-12-19T20:00:23.067Z,33.53
2022-12-19T20:02:49.923Z,35.25
2022-12-19T20:05:17.326Z,34.20
2022-12-19T20:07:43.857Z,35.40
2022-12-19T20:10:10.813Z,36.65
2022-12-19T20:12:37.268Z,35.90
2022-12-19T20:15:04.336Z,36.50
2022-12-19T20:17:30.729Z,37.72
2022-12-19T20:19:57.189Z,39.63
2022-12-19T20:22:23.649Z,38.42
2022-12-19T20:24:50.108Z,38.50
2022-12-19T20:27:16.638Z,39.10
2022-12-19T20:29:43.144Z,36.58
2022-12-19T20:32:09.958Z,34.95
2022-12-19T20:34:36.628Z,34.47
2022-12-19T20:37:03.067Z,38.50
2022-12-19T20:39:29.566Z,43.10
2022-12-19T20:41:55.964Z,37.83
2022-12-19T20:44:24.680Z,36.58
2022-12-19T20:46:52.207Z,36.22
2022-12-19T20:49:18.811Z,37.10
2022-12-19T20:51:47.471Z,35.13
2022-12-19T20:54:14.834Z,34.55
2022-12-19T20:56:41.617Z,36.33
2022-12-19T20:59:08.057Z,32.80
2022-12-19T21:01:34.731Z,36.53
2022-12-19T21:04:01.455Z,33.47
2022-12-19T21:06:28.274Z,33.13
2022-12-19T21:08:55.481Z,32.05
2022-12-19T21:11:22.540Z,30.95
2022-12-19T21:13:49.113Z,31.50
2022-12-19T21:16:17.859Z,31.73
2022-12-19T21:18:45.510Z,29.10
2022-12-19T21:21:18.486Z,30.58
2022-12-19T21:23:45.621Z,32.85
2022-12-19T21:26:12.146Z,33.22
2022-12-19T21:28:38.709Z,28.80
2022-12-19T21:31:08.072Z,32.30
2022-12-19T21:33:34.550Z,31.02
2022-12-19T21:36:12.923Z,30.45
2022-12-19T21:38:39.382Z,29.23
2022-12-19T21:41:07.230Z,29.30
2022-12-19T21:43:34.405Z,30.50
2022-12-19T21:46:09.128Z,26.77
2022-12-19T21:48:39.742Z,26.00
2022-12-19T21:51:07.590Z,26.38
2022-12-19T21:53:35.549Z,26.42
2022-12-19T21:56:07.628Z,24.80
2022-12-19T21:58:34.303Z,27.13
2022-12-19T22:01:09.573Z,24.13
2022-12-19T22:03:37.067Z,25.50
2022-12-19T22:06:04.631Z,28.08
2022-12-19T22:08:32.060Z,26.45
2022-12-19T22:10:58.505Z,23.17
2022-12-19T22:13:24.931Z,24.10
2022-12-19T22:15:52.246Z,25.80
2022-12-19T22:18:18.727Z,31.30
2022-12-19T22:20:45.684Z,29.23
2022-12-19T22:23:13.589Z,28.77
2022-12-19T22:25:41.028Z,31.38
2022-12-19T22:28:07.554Z,28.60
2022-12-19T22:30:35.590Z,28.92
2022-12-19T22:33:03.613Z,27.05
2022-12-19T22:35:30.037Z,28.92
2022-12-19T22:37:57.001Z,31.05
2022-12-19T22:40:23.569Z,28.00
2022-12-19T22:42:50.124Z,28.02
2022-12-19T22:45:16.608Z,28.75
2022-12-19T22:47:43.080Z,29.38
2022-12-19T22:50:10.404Z,29.50
2022-12-19T22:52:38.685Z,28.60
2022-12-19T22:55:06.845Z,29.48
2022-12-19T22:57:33.313Z,27.52
2022-12-19T22:59:59.719Z,26.13
2022-12-19T23:02:26.333Z,28.10
2022-12-19T23:04:52.925Z,27.88
2022-12-19T23:07:19.396Z,28.27
2022-12-19T23:09:45.852Z,29.67
2022-12-19T23:12:12.287Z,28.48
2022-12-19T23:14:38.776Z,29.58
2022-12-19T23:17:05.566Z,28.35
2022-12-19T23:19:32.308Z,26.25
2022-12-19T23:21:58.718Z,27.13
2022-12-19T23:24:25.251Z,28.60
2022-12-19T23:26:52.641Z,26.55
2022-12-19T23:29:19.076Z,28.08
2022-12-19T23:31:46.690Z,29.40
2022-12-19T23:34:13.901Z,25.13
2022-12-19T23:39:26.992Z,25.42
2022-12-19T23:41:53.493Z,24.77
2022-12-19T23:44:20.161Z,24.40
2022-12-19T23:46:46.591Z,25.83
2022-12-19T23:49:13.255Z,27.73
2022-12-19T23:51:39.676Z,24.92
2022-12-19T23:54:06.428Z,26.25
2022-12-19T23:56:33.082Z,25.63
2022-12-19T23:59:00.042Z,27.02
